createdAt,value
2022-12-20T00:00:58.459Z,18.21
2022-12-20T00:04:59.642Z,17.68
2022-12-20T00:05:59.663Z,18.70
2022-12-20T00:06:58.703Z,17.82
2022-12-20T00:07:57.914Z,17.19
2022-12-20T00:08:57.814Z,17.16
2022-12-20T00:09:57.704Z,17.91
2022-12-20T00:10:57.624Z,17.40
2022-12-20T00:12:57.653Z,18.85
2022-12-20T00:13:57.661Z,17.89
2022-12-20T00:14:57.218Z,17.94
2022-12-20T00:15:57.329Z,17.67
2022-12-20T00:25:56.572Z,16.74
2022-12-20T00:26:56.489Z,16.98
2022-12-20T00:27:56.380Z,17.32
2022-12-20T00:28:56.296Z,16.92
2022-12-20T00:30:57.645Z,17.77
2022-12-20T00:31:56.169Z,16.93
2022-12-20T00:32:56.029Z,16.59
2022-12-20T00:33:55.939Z,17.72
2022-12-20T00:34:55.822Z,17.61
2022-12-20T00:35:56.261Z,16.67
2022-12-20T00:36:55.734Z,16.44
2022-12-20T00:37:55.736Z,18.04
2022-12-20T00:38:55.559Z,16.83
2022-12-20T00:39:55.475Z,16.18
2022-12-20T00:40:55.349Z,17.48
2022-12-20T00:41:55.262Z,17.43
2022-12-20T00:42:55.255Z,17.10
2022-12-20T00:43:55.291Z,16.91
2022-12-20T00:44:55.096Z,16.50
2022-12-20T00:45:54.972Z,17.63
2022-12-20T00:46:54.933Z,16.87
2022-12-20T00:48:54.697Z,17.35
2022-12-20T00:52:54.304Z,17.81
2022-12-20T01:04:53.369Z,16.61
2022-12-20T01:05:53.791Z,15.96
2022-12-20T01:06:53.285Z,16.74
2022-12-20T01:07:53.280Z,16.88
2022-12-20T01:08:53.080Z,17.56
2022-12-20T01:09:53.021Z,17.00
2022-12-20T01:10:52.907Z,16.25
2022-12-20T01:11:52.791Z,17.10
2022-12-20T01:12:52.815Z,16.10
2022-12-20T01:15:53.225Z,16.40
2022-12-20T01:16:52.377Z,16.16
2022-12-20T01:19:52.053Z,15.34
2022-12-20T01:20:52.052Z,17.07
2022-12-20T01:22:52.242Z,15.62
2022-12-20T01:24:51.657Z,16.61
2022-12-20T01:25:51.660Z,17.28
2022-12-20T01:26:51.447Z,16.64
2022-12-20T01:27:51.455Z,18.18
2022-12-20T01:29:51.288Z,15.49
2022-12-20T01:30:51.182Z,16.65
2022-12-20T01:31:51.211Z,15.00
2022-12-20T01:33:51.336Z,15.23
2022-12-20T01:34:50.902Z,15.54
2022-12-20T01:35:50.797Z,16.47
2022-12-20T01:36:50.600Z,14.87
2022-12-20T01:37:50.520Z,16.07
2022-12-20T01:41:50.733Z,14.94
2022-12-20T01:43:50.265Z,15.14
2022-12-20T01:44:50.264Z,14.98
2022-12-20T01:45:50.021Z,15.97
2022-12-20T01:46:49.873Z,17.64
2022-12-20T01:47:49.751Z,15.19
2022-12-20T01:49:49.572Z,16.95
2022-12-20T01:50:49.487Z,14.09
2022-12-20T01:52:49.780Z,15.90
2022-12-20T01:53:49.301Z,15.64
2022-12-20T01:54:49.306Z,15.08
2022-12-20T01:55:49.313Z,15.94
2022-12-20T01:58:48.814Z,14.60
2022-12-20T01:59:48.725Z,15.21
2022-12-20T02:00:48.626Z,14.52
2022-12-20T02:03:49.255Z,16.04
2022-12-20T02:04:49.253Z,13.98
2022-12-20T02:05:48.779Z,14.88
2022-12-20T02:06:48.254Z,15.15
2022-12-20T02:07:48.057Z,15.35
2022-12-20T02:08:47.974Z,15.34
2022-12-20T02:09:47.850Z,15.55
2022-12-20T02:10:47.776Z,15.24
2022-12-20T02:11:47.656Z,15.85
2022-12-20T02:12:47.789Z,15.90
2022-12-20T02:13:47.788Z,16.24
2022-12-20T02:14:47.799Z,14.99
2022-12-20T02:15:47.816Z,15.24
2022-12-20T02:16:47.318Z,15.57
2022-12-20T02:17:47.324Z,15.79
2022-12-20T02:18:47.312Z,15.83
2022-12-20T02:25:48.282Z,15.09
2022-12-20T02:26:47.243Z,15.16
2022-12-20T02:27:47.250Z,14.75
2022-12-20T03:46:40.945Z,13.85
2022-12-20T03:47:40.528Z,13.29
2022-12-20T03:48:40.848Z,13.08
2022-12-20T03:49:40.347Z,12.89
2022-12-20T03:50:40.223Z,14.28
2022-12-20T03:52:40.390Z,12.82
2022-12-20T03:55:40.814Z,13.44
2022-12-20T03:56:41.330Z,12.47
2022-12-20T03:57:39.683Z,13.28
2022-12-20T03:58:40.317Z,13.10
2022-12-20T03:59:39.482Z,12.93
2022-12-20T04:00:39.788Z,12.79
2022-12-20T04:01:39.440Z,13.58
2022-12-20T04:02:39.400Z,13.41
2022-12-20T04:03:39.175Z,12.16
2022-12-20T04:04:39.011Z,13.30
2022-12-20T04:05:38.923Z,12.86
2022-12-20T04:06:38.818Z,12.60
2022-12-20T04:07:38.729Z,13.55
2022-12-20T04:08:38.619Z,13.87
2022-12-20T04:09:38.521Z,11.67
2022-12-20T04:10:38.832Z,12.55
2022-12-20T04:11:38.836Z,12.52
2022-12-20T04:12:38.357Z,13.25
2022-12-20T04:13:38.365Z,13.50
2022-12-20T04:14:38.376Z,11.74
2022-12-20T04:15:38.390Z,13.31
2022-12-20T04:16:38.458Z,12.68
2022-12-20T04:17:37.870Z,13.03
2022-12-20T04:18:37.774Z,12.19
2022-12-20T14:05:54.831Z,5.27
2022-12-20T14:06:54.745Z,4.77
2022-12-20T14:07:54.681Z,4.65
